Time,TemperatureF,DewpointF,PressureIn,WindDirection,WindDirectionDegrees,WindSpeedMPH,WindSpeedGustMPH,Humidity,HourlyPrecipIn,Conditions,Clouds,dailyrainin,SoftwareType,DateUTC
2013-02-06 00:02:00,42.0,31.0,29.93,South,179,0.0,2.0,66,0.00,,,0.00,,2013-02-06 05:02:00,
2013-02-06 00:12:00,42.0,31.0,29.93,South,179,0.0,2.0,66,0.00,,,0.00,,2013-02-06 05:12:00,
2013-02-06 01:32:00,39.0,32.0,29.93,WNW,301,0.0,2.0,76,0.00,,,0.00,,2013-02-06 06:32:00,
2013-02-06 01:42:00,39.0,32.0,29.93,WNW,301,0.0,2.0,76,0.00,,,0.00,,2013-02-06 06:42:00,
2013-02-06 01:52:00,39.0,32.0,29.93,WNW,301,0.0,2.0,76,0.00,,,0.00,,2013-02-06 06:52:00,
2013-02-06 02:02:00,39.0,32.0,29.93,WNW,301,0.0,2.0,76,0.00,,,0.00,,2013-02-06 07:02:00,
2013-02-06 02:11:00,39.0,32.0,29.93,WNW,301,0.0,2.0,76,0.00,,,0.00,,2013-02-06 07:11:00,
2013-02-06 02:32:00,37.0,30.0,29.93,SW,230,0.0,0.0,77,0.00,,,0.00,,2013-02-06 07:32:00,
2013-02-06 02:42:00,37.0,30.0,29.93,SW,230,0.0,0.0,77,0.00,,,0.00,,2013-02-06 07:42:00,
2013-02-06 02:52:00,37.0,30.0,29.93,SW,230,0.0,0.0,77,0.00,,,0.00,,2013-02-06 07:52:00,
2013-02-06 03:01:00,37.0,30.0,29.93,SW,230,0.0,0.0,77,0.00,,,0.00,,2013-02-06 08:01:00,
2013-02-06 03:11:00,37.0,30.0,29.93,SW,230,0.0,0.0,77,0.00,,,0.00,,2013-02-06 08:11:00,
2013-02-06 03:32:00,36.0,31.0,29.95,SE,131,0.0,0.0,83,0.00,,,0.00,,2013-02-06 08:32:00,
2013-02-06 03:42:00,36.0,31.0,29.95,SE,131,0.0,0.0,83,0.00,,,0.00,,2013-02-06 08:42:00,
2013-02-06 03:53:00,36.0,31.0,29.95,SE,131,0.0,0.0,83,0.00,,,0.00,,2013-02-06 08:53:00,
2013-02-06 04:02:00,36.0,31.0,29.95,SE,131,0.0,0.0,83,0.00,,,0.00,,2013-02-06 09:02:00,
2013-02-06 04:11:00,36.0,31.0,29.95,SE,131,0.0,0.0,83,0.00,,,0.00,,2013-02-06 09:11:00,
2013-02-06 04:32:00,34.0,30.0,29.96,NW,326,0.0,2.0,85,0.00,,,0.00,,2013-02-06 09:32:00,
2013-02-06 04:42:00,34.0,30.0,29.96,NW,326,0.0,2.0,85,0.00,,,0.00,,2013-02-06 09:42:00,
2013-02-06 04:52:00,34.0,30.0,29.96,NW,326,0.0,2.0,85,0.00,,,0.00,,2013-02-06 09:52:00,
2013-02-06 05:01:00,34.0,30.0,29.96,NW,326,0.0,2.0,85,0.00,,,0.00,,2013-02-06 10:01:00,
2013-02-06 05:11:00,34.0,30.0,29.96,NW,326,0.0,2.0,85,0.00,,,0.00,,2013-02-06 10:11:00,
2013-02-06 05:32:00,34.0,31.0,29.98,East,95,0.0,0.0,88,0.00,,,0.00,,2013-02-06 10:32:00,
2013-02-06 05:42:00,34.0,31.0,29.98,East,95,0.0,0.0,88,0.00,,,0.00,,2013-02-06 10:42:00,
2013-02-06 05:52:00,34.0,31.0,29.98,East,95,0.0,0.0,88,0.00,,,0.00,,2013-02-06 10:52:00,
2013-02-06 06:01:00,34.0,31.0,29.98,East,95,0.0,0.0,88,0.00,,,0.00,,2013-02-06 11:01:00,
2013-02-06 06:11:00,34.0,31.0,29.98,East,95,0.0,0.0,88,0.00,,,0.00,,2013-02-06 11:11:00,
2013-02-06 06:12:00,33.0,31.0,30.01,SSW,209,0.0,0.0,92,0.00,,,0.00,,2013-02-06 11:12:00,
2013-02-06 06:33:00,33.0,31.0,30.01,SSW,209,0.0,0.0,92,0.00,,,0.00,,2013-02-06 11:33:00,
2013-02-06 06:42:00,33.0,31.0,30.01,SSW,209,0.0,0.0,92,0.00,,,0.00,,2013-02-06 11:42:00,
2013-02-06 06:53:00,33.0,31.0,30.01,SSW,209,0.0,0.0,92,0.00,,,0.00,,2013-02-06 11:53:00,
2013-02-06 07:02:00,33.0,31.0,30.01,SSW,209,0.0,0.0,92,0.00,,,0.00,,2013-02-06 12:02:00,
2013-02-06 08:32:00,33.0,31.0,30.07,SE,126,0.0,0.0,93,0.00,,,0.00,,2013-02-06 13:32:00,
2013-02-06 08:42:00,33.0,31.0,30.07,SE,126,0.0,0.0,93,0.00,,,0.00,,2013-02-06 13:42:00,
2013-02-06 08:52:00,33.0,31.0,30.07,SE,126,0.0,0.0,93,0.00,,,0.00,,2013-02-06 13:52:00,
2013-02-06 09:02:00,33.0,31.0,30.07,SE,126,0.0,0.0,93,0.00,,,0.00,,2013-02-06 14:02:00,
2013-02-06 09:11:00,33.0,31.0,30.07,SE,126,0.0,0.0,93,0.00,,,0.00,,2013-02-06 14:11:00,
2013-02-06 09:32:00,36.0,33.0,30.09,SE,126,0.0,0.0,88,0.00,,,0.00,,2013-02-06 14:32:00,
2013-02-06 09:42:00,36.0,33.0,30.09,SE,126,0.0,0.0,88,0.00,,,0.00,,2013-02-06 14:42:00,
2013-02-06 09:52:00,36.0,33.0,30.09,SE,126,0.0,0.0,88,0.00,,,0.00,,2013-02-06 14:52:00,
2013-02-06 10:02:00,36.0,33.0,30.09,SE,126,0.0,0.0,88,0.00,,,0.00,,2013-02-06 15:02:00,
2013-02-06 10:11:00,36.0,33.0,30.09,SE,126,0.0,0.0,88,0.00,,,0.00,,2013-02-06 15:11:00,
2013-02-06 10:32:00,45.0,36.0,30.08,NW,320,0.0,2.0,71,0.00,,,0.00,,2013-02-06 15:32:00,
2013-02-06 10:42:00,45.0,36.0,30.08,NW,320,0.0,2.0,71,0.00,,,0.00,,2013-02-06 15:42:00,
2013-02-06 10:52:00,45.0,36.0,30.08,NW,320,0.0,2.0,71,0.00,,,0.00,,2013-02-06 15:52:00,
2013-02-06 11:01:00,45.0,36.0,30.08,NW,320,0.0,2.0,71,0.00,,,0.00,,2013-02-06 16:01:00,
2013-02-06 11:11:00,45.0,36.0,30.08,NW,320,0.0,2.0,71,0.00,,,0.00,,2013-02-06 16:11:00,
2013-02-06 11:32:00,50.0,35.0,30.11,NNW,335,0.0,2.0,57,0.00,,,0.00,,2013-02-06 16:32:00,
2013-02-06 11:42:00,50.0,35.0,30.11,NNW,335,0.0,2.0,57,0.00,,,0.00,,2013-02-06 16:42:00,
2013-02-06 11:52:00,50.0,35.0,30.11,NNW,335,0.0,2.0,57,0.00,,,0.00,,2013-02-06 16:52:00,
2013-02-06 12:02:00,50.0,35.0,30.11,NNW,335,0.0,2.0,57,0.00,,,0.00,,2013-02-06 17:02:00,
2013-02-06 12:11:00,50.0,35.0,30.11,NNW,335,0.0,2.0,57,0.00,,,0.00,,2013-02-06 17:11:00,
2013-02-06 12:32:00,51.0,29.0,30.10,SE,137,0.0,2.0,43,0.00,,,0.00,,2013-02-06 17:32:00,
2013-02-06 12:42:00,51.0,29.0,30.10,SE,137,0.0,2.0,43,0.00,,,0.00,,2013-02-06 17:42:00,
2013-02-06 12:52:00,51.0,29.0,30.10,SE,137,0.0,2.0,43,0.00,,,0.00,,2013-02-06 17:52:00,
2013-02-06 13:02:00,51.0,29.0,30.10,SE,137,0.0,2.0,43,0.00,,,0.00,,2013-02-06 18:02:00,
2013-02-06 13:11:00,51.0,29.0,30.10,SE,137,0.0,2.0,43,0.00,,,0.00,,2013-02-06 18:11:00,
2013-02-06 13:33:00,57.0,33.0,30.07,SSW,210,0.0,5.0,40,0.00,,,0.00,,2013-02-06 18:33:00,
2013-02-06 13:42:00,57.0,33.0,30.07,SSW,210,0.0,5.0,40,0.00,,,0.00,,2013-02-06 18:42:00,
2013-02-06 13:52:00,57.0,33.0,30.07,SSW,210,0.0,5.0,40,0.00,,,0.00,,2013-02-06 18:52:00,
2013-02-06 14:02:00,57.0,33.0,30.07,SSW,210,0.0,5.0,40,0.00,,,0.00,,2013-02-06 19:02:00,
2013-02-06 14:11:00,57.0,33.0,30.07,SSW,210,0.0,5.0,40,0.00,,,0.00,,2013-02-06 19:11:00,
2013-02-06 14:32:00,62.0,32.0,30.04,North,359,0.0,1.0,32,0.00,,,0.00,,2013-02-06 19:32:00,
2013-02-06 14:42:00,62.0,32.0,30.04,North,359,0.0,1.0,32,0.00,,,0.00,,2013-02-06 19:42:00,
2013-02-06 14:52:00,62.0,32.0,30.04,North,359,0.0,1.0,32,0.00,,,0.00,,2013-02-06 19:52:00,
2013-02-06 15:01:00,62.0,32.0,30.04,North,359,0.0,1.0,32,0.00,,,0.00,,2013-02-06 20:01:00,
2013-02-06 15:11:00,62.0,32.0,30.04,North,359,0.0,1.0,32,0.00,,,0.00,,2013-02-06 20:11:00,
2013-02-06 15:32:00,59.0,33.0,30.05,NW,304,0.0,5.0,37,0.00,,,0.00,,2013-02-06 20:32:00,
2013-02-06 16:11:00,59.0,33.0,30.05,NW,304,0.0,5.0,37,0.00,,,0.00,,2013-02-06 21:11:00,
2013-02-06 16:32:00,55.0,29.0,30.06,NW,323,1.0,6.0,37,0.00,,,0.00,,2013-02-06 21:32:00,
2013-02-06 16:42:00,55.0,29.0,30.06,NW,323,1.0,6.0,37,0.00,,,0.00,,2013-02-06 21:42:00,
2013-02-06 16:52:00,55.0,29.0,30.06,NW,323,1.0,6.0,37,0.00,,,0.00,,2013-02-06 21:52:00,
2013-02-06 17:01:00,55.0,29.0,30.06,NW,323,1.0,6.0,37,0.00,,,0.00,,2013-02-06 22:01:00,
2013-02-06 17:11:00,55.0,29.0,30.06,NW,323,1.0,6.0,37,0.00,,,0.00,,2013-02-06 22:11:00,
2013-02-06 17:32:00,52.0,28.0,30.06,NW,320,0.0,2.0,39,0.00,,,0.00,,2013-02-06 22:32:00,
2013-02-06 17:42:00,52.0,28.0,30.06,NW,320,0.0,2.0,39,0.00,,,0.00,,2013-02-06 22:42:00,
2013-02-06 17:52:00,52.0,28.0,30.06,NW,320,0.0,2.0,39,0.00,,,0.00,,2013-02-06 22:52:00,
2013-02-06 18:01:00,52.0,28.0,30.06,NW,320,0.0,2.0,39,0.00,,,0.00,,2013-02-06 23:01:00,
2013-02-06 18:11:00,52.0,28.0,30.06,NW,320,0.0,2.0,39,0.00,,,0.00,,2013-02-06 23:11:00,
2013-02-06 18:32:00,48.0,26.0,30.08,NW,320,0.0,0.0,42,0.00,,,0.00,,2013-02-06 23:32:00,
2013-02-06 18:42:00,48.0,26.0,30.08,NW,320,0.0,0.0,42,0.00,,,0.00,,2013-02-06 23:42:00,
2013-02-06 18:52:00,48.0,26.0,30.08,NW,320,0.0,0.0,42,0.00,,,0.00,,2013-02-06 23:52:00,
2013-02-06 19:02:00,48.0,26.0,30.08,NW,320,0.0,0.0,42,0.00,,,0.00,,2013-02-07 00:02:00,
2013-02-06 19:11:00,48.0,26.0,30.08,NW,320,0.0,0.0,42,0.00,,,0.00,,2013-02-07 00:11:00,
2013-02-06 19:32:00,46.0,27.0,30.07,NW,320,0.0,1.0,47,0.00,,,0.00,,2013-02-07 00:32:00,
2013-02-06 19:42:00,46.0,27.0,30.07,NW,320,0.0,1.0,47,0.00,,,0.00,,2013-02-07 00:42:00,
2013-02-06 19:52:00,46.0,27.0,30.07,NW,320,0.0,1.0,47,0.00,,,0.00,,2013-02-07 00:52:00,
2013-02-06 20:01:00,46.0,27.0,30.07,NW,320,0.0,1.0,47,0.00,,,0.00,,2013-02-07 01:01:00,
2013-02-06 20:11:00,46.0,27.0,30.07,NW,320,0.0,1.0,47,0.00,,,0.00,,2013-02-07 01:11:00,
2013-02-06 20:32:00,45.0,25.0,30.09,NW,320,0.0,0.0,45,0.00,,,0.00,,2013-02-07 01:32:00,
2013-02-06 20:42:00,45.0,25.0,30.09,NW,320,0.0,0.0,45,0.00,,,0.00,,2013-02-07 01:42:00,
2013-02-06 20:52:00,45.0,25.0,30.09,NW,320,0.0,0.0,45,0.00,,,0.00,,2013-02-07 01:52:00,
2013-02-06 21:01:00,45.0,25.0,30.09,NW,320,0.0,0.0,45,0.00,,,0.00,,2013-02-07 02:01:00,
2013-02-06 21:11:00,45.0,25.0,30.09,NW,320,0.0,0.0,45,0.00,,,0.00,,2013-02-07 02:11:00,
2013-02-06 21:32:00,44.0,25.0,30.11,NW,320,0.0,0.0,47,0.00,,,0.00,,2013-02-07 02:32:00,
2013-02-06 21:42:00,44.0,25.0,30.11,NW,320,0.0,0.0,47,0.00,,,0.00,,2013-02-07 02:42:00,
2013-02-06 21:52:00,44.0,25.0,30.11,NW,320,0.0,0.0,47,0.00,,,0.00,,2013-02-07 02:52:00,
2013-02-06 22:02:00,44.0,25.0,30.11,NW,320,0.0,0.0,47,0.00,,,0.00,,2013-02-07 03:02:00,
2013-02-06 22:11:00,44.0,25.0,30.11,NW,320,0.0,0.0,47,0.00,,,0.00,,2013-02-07 03:11:00,
2013-02-06 22:32:00,42.0,25.0,30.14,WNW,301,0.0,1.0,50,0.00,,,0.00,,2013-02-07 03:32:00,
2013-02-06 22:42:00,42.0,25.0,30.14,WNW,301,0.0,1.0,50,0.00,,,0.00,,2013-02-07 03:42:00,
2013-02-06 22:52:00,42.0,25.0,30.14,WNW,301,0.0,1.0,50,0.00,,,0.00,,2013-02-07 03:52:00,
2013-02-06 23:01:00,42.0,25.0,30.14,WNW,301,0.0,1.0,50,0.00,,,0.00,,2013-02-07 04:01:00,
2013-02-06 23:11:00,42.0,25.0,30.14,WNW,301,0.0,1.0,50,0.00,,,0.00,,2013-02-07 04:11:00,
2013-02-06 23:12:00,40.0,26.0,30.14,WNW,301,0.0,0.0,56,0.00,,,0.00,,2013-02-07 04:12:00,
2013-02-06 23:32:00,40.0,26.0,30.14,WNW,301,0.0,0.0,56,0.00,,,0.00,,2013-02-07 04:32:00,
2013-02-06 23:42:00,40.0,26.0,30.14,WNW,301,0.0,0.0,56,0.00,,,0.00,,2013-02-07 04:42:00,
2013-02-06 23:53:00,40.0,26.0,30.14,WNW,301,0.0,0.0,56,0.00,,,0.00,,2013-02-07 04:53:00,